createdAt,value
2022-12-03T00:01:36.844Z,68.61
2022-12-03T00:04:09.041Z,66.88
2022-12-03T00:06:40.962Z,64.58
2022-12-03T00:09:12.847Z,62.91
2022-12-03T00:11:44.702Z,61.76
2022-12-03T00:14:16.498Z,60.67
2022-12-03T00:16:48.260Z,58.38
2022-12-03T00:19:20.212Z,56.37
2022-12-03T00:21:51.951Z,56.99
2022-12-03T00:24:23.709Z,58.46
2022-12-03T00:26:55.512Z,60.01
2022-12-03T00:29:27.257Z,64.05
2022-12-03T00:31:59.897Z,68.17
2022-12-03T00:34:31.640Z,67.21
2022-12-03T00:37:03.393Z,65.20
2022-12-03T00:39:35.123Z,63.46
2022-12-03T00:42:07.608Z,61.70
2022-12-03T00:44:39.581Z,60.39
2022-12-03T00:47:11.520Z,57.73
2022-12-03T00:49:43.355Z,56.05
2022-12-03T00:52:15.107Z,57.06
2022-12-03T00:54:46.952Z,58.21
2022-12-03T00:57:18.715Z,59.45
2022-12-03T00:59:50.459Z,63.57
2022-12-03T01:02:22.323Z,67.70
2022-12-03T01:04:54.445Z,66.98
2022-12-03T01:07:26.611Z,65.16
2022-12-03T01:09:58.396Z,63.63
2022-12-03T01:12:30.429Z,62.33
2022-12-03T01:15:02.544Z,61.05
2022-12-03T01:17:34.337Z,60.04
2022-12-03T01:20:07.168Z,57.10
2022-12-03T01:22:38.927Z,55.59
2022-12-03T01:25:11.717Z,56.56
2022-12-03T01:27:43.874Z,58.23
2022-12-03T01:30:16.577Z,59.88
2022-12-03T01:32:48.431Z,64.08
2022-12-03T01:35:20.558Z,67.80
2022-12-03T01:37:52.288Z,66.64
2022-12-03T01:40:24.548Z,65.15
2022-12-03T01:42:56.350Z,63.48
2022-12-03T01:45:28.139Z,61.90
2022-12-03T01:47:59.916Z,60.78
2022-12-03T01:50:34.191Z,58.22
2022-12-03T01:53:06.258Z,56.72
2022-12-03T01:55:38.615Z,57.86
2022-12-03T01:58:12.896Z,59.35
2022-12-03T02:00:44.770Z,63.19
2022-12-03T02:03:20.345Z,66.83
2022-12-03T02:05:52.444Z,65.81
2022-12-03T02:08:32.363Z,64.05
2022-12-03T02:11:07.570Z,62.60
2022-12-03T02:13:39.728Z,61.20
2022-12-03T02:16:13.950Z,60.11
2022-12-03T02:18:46.151Z,57.62
2022-12-03T02:21:26.612Z,56.46
2022-12-03T02:24:04.196Z,56.99
2022-12-03T02:26:36.043Z,58.51
2022-12-03T02:29:07.822Z,60.65
2022-12-03T02:31:39.665Z,64.99
2022-12-03T02:34:12.186Z,68.52
2022-12-03T02:36:43.917Z,67.20
2022-12-03T02:39:15.771Z,65.00
2022-12-03T02:42:05.152Z,63.40
2022-12-03T02:44:37.058Z,62.05
2022-12-03T02:47:08.986Z,60.67
2022-12-03T02:49:41.584Z,58.08
2022-12-03T02:52:13.441Z,56.56
2022-12-03T02:54:45.316Z,57.37
2022-12-03T02:57:17.889Z,58.75
2022-12-03T02:59:49.778Z,60.28
2022-12-03T03:02:22.451Z,64.15
2022-12-03T03:04:54.899Z,67.71
2022-12-03T03:07:27.114Z,66.56
2022-12-03T03:09:59.113Z,64.53
2022-12-03T03:12:33.640Z,63.76
2022-12-03T03:15:13.313Z,62.38
2022-12-03T03:17:45.640Z,61.09
2022-12-03T03:20:20.121Z,60.12
2022-12-03T03:22:51.863Z,57.47
2022-12-03T03:25:24.811Z,55.77
2022-12-03T03:27:57.164Z,56.41
2022-12-03T03:30:28.951Z,58.17
2022-12-03T03:33:00.937Z,59.88
2022-12-03T03:35:32.807Z,64.12
2022-12-03T03:38:05.244Z,67.74
2022-12-03T03:40:38.045Z,66.54
2022-12-03T03:43:10.366Z,64.72
2022-12-03T03:45:42.863Z,63.24
2022-12-03T03:48:16.083Z,61.93
2022-12-03T03:50:48.302Z,60.82
2022-12-03T03:53:20.790Z,59.95
2022-12-03T03:55:53.972Z,57.41
2022-12-03T03:58:25.795Z,55.90
2022-12-03T04:00:57.595Z,57.09
2022-12-03T04:03:29.860Z,58.76
2022-12-03T04:06:01.977Z,60.30
2022-12-03T04:08:33.861Z,64.31
2022-12-03T04:11:23.285Z,67.82
2022-12-03T04:13:54.994Z,67.10
2022-12-03T04:16:26.946Z,65.25
2022-12-03T04:18:58.794Z,63.80
2022-12-03T04:21:48.069Z,62.66
2022-12-03T04:24:19.824Z,61.57
2022-12-03T04:27:09.309Z,60.59
2022-12-03T04:29:41.819Z,60.02
2022-12-03T04:32:31.124Z,57.56
2022-12-03T04:35:20.729Z,56.23
2022-12-03T04:37:52.498Z,57.11
2022-12-03T04:40:41.628Z,59.24
2022-12-03T04:43:13.845Z,63.42
2022-12-03T04:45:45.672Z,67.45
2022-12-03T04:48:17.985Z,66.51
2022-12-03T04:50:50.229Z,64.65
2022-12-03T04:53:22.070Z,63.07
2022-12-03T04:55:53.866Z,61.89
2022-12-03T04:58:25.609Z,60.63
2022-12-03T05:00:58.599Z,57.90
2022-12-03T05:03:30.489Z,56.16
2022-12-03T05:06:02.296Z,57.01
2022-12-03T05:08:34.278Z,58.53
2022-12-03T05:11:06.370Z,60.08
2022-12-03T05:13:38.398Z,64.35
2022-12-03T05:16:11.082Z,68.50
2022-12-03T05:18:43.077Z,67.62
2022-12-03T05:21:14.890Z,65.78
2022-12-03T05:23:46.743Z,64.13
2022-12-03T05:26:19.885Z,62.97
2022-12-03T05:28:51.824Z,62.06
2022-12-03T05:31:23.640Z,61.15
2022-12-03T05:33:55.856Z,60.64
2022-12-03T05:36:27.968Z,60.10
2022-12-03T05:38:59.697Z,57.80
2022-12-03T05:42:03.322Z,56.38
2022-12-03T05:44:35.670Z,56.88
2022-12-03T05:47:07.538Z,59.73
2022-12-03T05:49:39.301Z,63.73
2022-12-03T05:52:11.046Z,67.72
2022-12-03T05:54:42.863Z,67.02
2022-12-03T05:57:14.854Z,65.38
2022-12-03T05:59:46.628Z,63.81
2022-12-03T06:02:18.557Z,62.57
2022-12-03T06:04:50.630Z,61.86
2022-12-03T06:07:22.519Z,61.23
2022-12-03T06:09:54.510Z,60.52
2022-12-03T06:12:26.263Z,59.98
2022-12-03T06:14:58.051Z,57.98
2022-12-03T06:17:29.985Z,57.09
2022-12-03T06:20:01.772Z,58.46
2022-12-03T06:22:33.819Z,60.78
2022-12-03T06:25:06.880Z,64.50
2022-12-03T06:27:39.262Z,67.83
2022-12-03T06:30:13.337Z,67.02
2022-12-03T06:32:45.364Z,65.62
2022-12-03T06:35:17.337Z,64.10
2022-12-03T06:37:49.392Z,62.88
2022-12-03T06:40:21.430Z,61.84
2022-12-03T06:42:53.553Z,61.01
2022-12-03T06:45:25.286Z,60.60
2022-12-03T06:47:57.031Z,60.13
2022-12-03T06:50:28.823Z,59.90
2022-12-03T06:53:00.555Z,57.60
2022-12-03T06:55:32.313Z,55.91
2022-12-03T06:58:04.106Z,56.99
2022-12-03T07:00:35.907Z,59.29
2022-12-03T07:03:08.250Z,62.68
2022-12-03T07:05:40.224Z,67.08
2022-12-03T07:08:12.126Z,66.30
2022-12-03T07:10:43.912Z,64.44
2022-12-03T07:13:15.685Z,62.21
2022-12-03T07:15:50.038Z,60.61
2022-12-03T07:18:21.838Z,57.59
2022-12-03T07:20:53.564Z,55.65
2022-12-03T07:23:25.287Z,56.31
2022-12-03T07:25:57.018Z,58.07
2022-12-03T07:28:28.848Z,60.92
2022-12-03T07:31:00.834Z,64.63
2022-12-03T07:33:32.705Z,67.93
2022-12-03T07:36:04.574Z,66.74
2022-12-03T07:38:36.331Z,64.40
2022-12-03T07:41:08.525Z,62.74
2022-12-03T07:43:40.606Z,61.50
2022-12-03T07:46:13.088Z,60.38
2022-12-03T07:48:44.973Z,59.73
2022-12-03T07:51:16.728Z,57.73
2022-12-03T07:53:48.441Z,56.42
2022-12-03T07:56:20.208Z,57.17
2022-12-03T07:58:52.080Z,59.67
2022-12-03T08:01:24.006Z,63.51
2022-12-03T08:03:56.082Z,66.75
2022-12-03T08:06:27.893Z,65.76
2022-12-03T08:08:59.705Z,64.30
2022-12-03T08:11:31.822Z,62.76
2022-12-03T08:14:11.437Z,61.57
2022-12-03T08:16:44.715Z,60.22
2022-12-03T08:19:19.666Z,56.80
2022-12-03T08:21:54.117Z,55.13
2022-12-03T08:24:29.619Z,56.31
2022-12-03T08:27:02.134Z,57.14
2022-12-03T08:29:34.026Z,59.87
2022-12-03T08:32:11.491Z,63.62
2022-12-03T08:34:46.068Z,67.68
2022-12-03T08:37:20.404Z,66.16
2022-12-03T08:39:55.785Z,63.82
2022-12-03T08:42:45.056Z,61.69
2022-12-03T08:45:40.538Z,60.52
2022-12-03T08:48:32.505Z,56.91
2022-12-03T08:51:10.724Z,55.43
2022-12-03T08:53:48.483Z,56.81
2022-12-03T08:56:25.890Z,58.36
2022-12-03T08:58:59.297Z,60.76
2022-12-03T09:01:39.253Z,64.80
2022-12-03T09:04:23.880Z,67.75
2022-12-03T09:06:57.242Z,66.03
2022-12-03T09:09:29.599Z,63.42
2022-12-03T09:12:03.044Z,61.39
2022-12-03T09:14:34.932Z,58.42
2022-12-03T09:17:07.056Z,55.92
2022-12-03T09:19:46.236Z,56.20
2022-12-03T09:22:19.213Z,56.65
2022-12-03T09:24:51.208Z,59.16
2022-12-03T09:27:23.627Z,60.82
2022-12-03T09:29:55.551Z,64.46
2022-12-03T09:32:27.354Z,67.22
2022-12-03T09:34:59.509Z,65.29
2022-12-03T09:37:31.543Z,62.46
2022-12-03T09:40:03.745Z,60.59
2022-12-03T09:42:36.006Z,57.33
2022-12-03T09:45:12.648Z,55.14
2022-12-03T09:47:48.390Z,56.79
2022-12-03T09:50:23.837Z,58.33
2022-12-03T09:53:03.552Z,60.66
2022-12-03T09:55:35.695Z,63.12
2022-12-03T09:58:13.717Z,66.24
2022-12-03T10:00:48.522Z,64.41
2022-12-03T10:03:28.172Z,63.61
2022-12-03T10:06:01.570Z,60.15
2022-12-03T10:08:33.695Z,56.09
2022-12-03T10:11:06.380Z,54.37
2022-12-03T10:13:38.722Z,54.95
2022-12-03T10:16:16.315Z,55.93
2022-12-03T10:18:51.221Z,57.76
2022-12-03T10:21:32.340Z,60.06
2022-12-03T10:24:22.606Z,64.01
2022-12-03T10:26:56.122Z,66.44
2022-12-03T10:29:33.901Z,64.14
2022-12-03T10:32:08.980Z,60.92
2022-12-03T10:34:42.914Z,56.87
2022-12-03T10:37:20.292Z,54.22
2022-12-03T10:40:01.565Z,54.89
2022-12-03T10:42:36.621Z,55.75
2022-12-03T10:45:24.976Z,58.04
2022-12-03T10:48:12.219Z,58.75
2022-12-03T10:50:51.991Z,61.45
2022-12-03T10:53:28.228Z,64.88
2022-12-03T10:56:04.156Z,67.09
2022-12-03T10:58:38.381Z,64.81
2022-12-03T11:01:17.476Z,62.21
2022-12-03T11:03:50.108Z,59.31
2022-12-03T11:06:24.085Z,55.33
2022-12-03T11:09:01.419Z,54.87
2022-12-03T11:11:35.779Z,56.66
2022-12-03T11:14:08.366Z,57.80
2022-12-03T11:17:10.147Z,59.46
2022-12-03T11:19:47.633Z,60.14
2022-12-03T11:22:42.482Z,64.94
2022-12-03T11:25:50.311Z,67.89
2022-12-03T11:28:46.638Z,65.08
2022-12-03T11:31:39.735Z,63.25
2022-12-03T11:34:49.135Z,59.77
2022-12-03T11:37:31.261Z,55.79
2022-12-03T11:40:39.061Z,54.85
2022-12-03T11:43:12.461Z,56.47
2022-12-03T11:45:45.775Z,58.91
2022-12-03T11:48:18.826Z,59.59
2022-12-03T11:50:55.023Z,61.78
2022-12-03T11:53:28.915Z,64.91
2022-12-03T11:56:09.241Z,66.26
2022-12-03T11:58:43.773Z,64.06
2022-12-03T12:01:17.207Z,61.32
2022-12-03T12:03:51.079Z,57.69
2022-12-03T12:06:23.694Z,54.94
2022-12-03T12:09:00.524Z,55.81
2022-12-03T12:11:33.657Z,56.73
2022-12-03T12:14:07.267Z,58.62
2022-12-03T12:16:53.478Z,60.64
2022-12-03T12:19:33.378Z,64.44
2022-12-03T12:22:20.478Z,66.63
2022-12-03T12:24:54.408Z,64.16
2022-12-03T12:27:32.454Z,61.32
2022-12-03T12:30:03.535Z,57.64
2022-12-03T12:32:42.040Z,56.34
2022-12-03T12:35:20.564Z,57.54
2022-12-03T12:37:59.639Z,59.48
2022-12-03T12:40:34.287Z,60.27
2022-12-03T12:43:14.161Z,64.10
2022-12-03T12:45:47.402Z,66.77
2022-12-03T12:48:26.561Z,64.14
2022-12-03T12:51:10.330Z,61.98
2022-12-03T12:53:43.767Z,60.73
2022-12-03T12:56:24.044Z,57.68
2022-12-03T12:58:58.117Z,55.66
2022-12-03T13:01:33.236Z,56.41
2022-12-03T13:04:13.370Z,57.76
2022-12-03T13:06:45.999Z,60.39
2022-12-03T13:09:21.764Z,64.05
2022-12-03T13:11:58.210Z,66.07
2022-12-03T13:14:36.672Z,64.40
2022-12-03T13:17:18.443Z,61.99
2022-12-03T13:19:58.204Z,60.24
2022-12-03T13:22:35.708Z,57.50
2022-12-03T13:25:58.934Z,55.97
2022-12-03T13:28:25.723Z,57.46
2022-12-03T13:30:58.152Z,59.67
2022-12-03T13:33:30.929Z,62.81
2022-12-03T13:36:03.996Z,65.84
2022-12-03T13:38:36.468Z,64.45
2022-12-03T13:41:35.219Z,62.30
2022-12-03T13:44:16.500Z,60.49
2022-12-03T13:46:48.352Z,57.06
2022-12-03T13:49:23.958Z,55.97
2022-12-03T13:51:55.987Z,57.34
2022-12-03T13:54:31.526Z,58.33
2022-12-03T13:57:06.074Z,59.73
2022-12-03T13:59:38.207Z,64.18
2022-12-03T14:02:10.376Z,67.48
2022-12-03T14:04:42.526Z,65.84
2022-12-03T14:07:14.441Z,63.62
2022-12-03T14:09:46.355Z,62.15
2022-12-03T14:12:27.433Z,60.99
2022-12-03T14:14:59.312Z,60.26
2022-12-03T14:17:31.898Z,57.53
2022-12-03T14:20:04.272Z,56.14
2022-12-03T14:22:38.321Z,57.39
2022-12-03T14:25:11.657Z,59.17
2022-12-03T14:27:43.671Z,63.49
2022-12-03T14:30:16.902Z,67.38
2022-12-03T14:32:48.722Z,66.45
2022-12-03T14:35:20.570Z,64.50
2022-12-03T14:37:52.715Z,62.63
2022-12-03T14:40:24.727Z,61.70
2022-12-03T14:42:56.513Z,60.89
2022-12-03T14:45:30.072Z,60.17
2022-12-03T14:48:02.006Z,60.09
2022-12-03T14:50:33.955Z,60.03
2022-12-03T14:53:05.735Z,58.09
2022-12-03T14:55:37.756Z,56.96
2022-12-03T14:58:09.725Z,57.78
2022-12-03T15:00:41.583Z,60.13
2022-12-03T15:03:14.238Z,64.64
2022-12-03T15:05:46.411Z,68.42
2022-12-03T15:08:18.269Z,67.29
2022-12-03T15:10:50.273Z,65.58
2022-12-03T15:13:22.115Z,63.98
2022-12-03T15:15:54.036Z,62.74
2022-12-03T15:18:26.210Z,61.57
2022-12-03T15:20:58.082Z,60.68
2022-12-03T15:23:30.205Z,59.97
2022-12-03T15:26:02.130Z,59.83
2022-12-03T15:28:33.995Z,57.75
2022-12-03T15:31:05.990Z,56.92
2022-12-03T15:33:37.917Z,58.20
2022-12-03T15:36:10.746Z,61.22
2022-12-03T15:38:42.513Z,66.03
2022-12-03T15:41:28.793Z,68.74
2022-12-03T15:44:03.136Z,66.61
2022-12-03T15:46:35.091Z,64.47
2022-12-03T15:49:07.025Z,63.36
2022-12-03T15:51:38.792Z,62.21
2022-12-03T15:54:12.444Z,61.62
2022-12-03T15:56:44.482Z,60.84
2022-12-03T15:59:16.401Z,59.93
2022-12-03T16:01:51.113Z,57.89
2022-12-03T16:04:23.597Z,57.25
2022-12-03T16:06:55.379Z,58.94
2022-12-03T16:09:27.909Z,61.93
2022-12-03T16:11:59.691Z,66.39
2022-12-03T16:14:32.009Z,68.66
2022-12-03T16:17:03.922Z,67.06
2022-12-03T16:19:36.530Z,65.36
2022-12-03T16:22:08.475Z,64.15
2022-12-03T16:24:40.721Z,63.05
2022-12-03T16:27:12.489Z,61.72
2022-12-03T16:29:44.379Z,61.13
2022-12-03T16:32:16.301Z,60.65
2022-12-03T16:34:48.209Z,60.12
2022-12-03T16:37:19.952Z,58.00
2022-12-03T16:39:55.825Z,57.23
2022-12-03T16:42:28.369Z,59.03
2022-12-03T16:45:23.186Z,60.62
2022-12-03T16:47:54.945Z,65.49
2022-12-03T16:50:29.910Z,68.27
2022-12-03T16:53:02.572Z,66.54
2022-12-03T16:55:34.356Z,64.89
2022-12-03T16:58:06.419Z,63.34
2022-12-03T17:00:38.158Z,62.12
2022-12-03T17:03:09.945Z,61.36
2022-12-03T17:05:42.472Z,60.80
2022-12-03T17:08:15.079Z,60.40
2022-12-03T17:10:47.210Z,60.15
2022-12-03T17:13:19.260Z,60.02
2022-12-03T17:15:51.152Z,59.77
2022-12-03T17:18:23.008Z,57.93
2022-12-03T17:20:55.156Z,56.69
2022-12-03T17:23:27.024Z,58.29
2022-12-03T17:25:58.793Z,59.87
2022-12-03T17:28:30.742Z,64.54
2022-12-03T17:31:02.732Z,68.04
2022-12-03T17:33:35.096Z,66.45
2022-12-03T17:36:08.748Z,64.33
2022-12-03T17:38:40.742Z,63.12
2022-12-03T17:41:12.649Z,62.05
2022-12-03T17:43:44.666Z,61.21
2022-12-03T17:46:16.783Z,60.56
2022-12-03T17:48:49.115Z,60.33
2022-12-03T17:51:21.369Z,60.19
2022-12-03T17:53:53.149Z,59.69
2022-12-03T17:56:25.509Z,57.71
2022-12-03T17:58:58.662Z,57.11
2022-12-03T18:01:30.523Z,58.65
2022-12-03T18:04:02.705Z,61.00
2022-12-03T18:06:34.835Z,65.52
2022-12-03T18:09:07.512Z,68.34
2022-12-03T18:11:39.549Z,67.13
2022-12-03T18:14:12.729Z,65.33
2022-12-03T18:16:44.660Z,63.76
2022-12-03T18:19:16.414Z,62.62
2022-12-03T18:21:48.482Z,61.93
2022-12-03T18:24:20.400Z,61.34
2022-12-03T18:26:52.562Z,60.82
2022-12-03T18:29:25.410Z,60.44
2022-12-03T18:31:57.516Z,60.03
2022-12-03T18:34:29.382Z,57.84
2022-12-03T18:37:01.237Z,56.52
2022-12-03T18:39:36.790Z,57.95
2022-12-03T18:42:17.485Z,60.34
2022-12-03T18:44:50.834Z,64.92
2022-12-03T18:47:24.428Z,67.90
2022-12-03T18:49:56.906Z,66.73
2022-12-03T18:52:29.426Z,65.04
2022-12-03T18:55:01.398Z,63.19
2022-12-03T18:57:33.993Z,62.07
2022-12-03T19:00:13.232Z,61.05
2022-12-03T19:05:38.258Z,59.82
2022-12-03T19:08:14.865Z,57.91
2022-12-03T19:10:55.687Z,56.79
2022-12-03T19:13:28.664Z,58.78
2022-12-03T19:16:04.730Z,62.63
2022-12-03T19:18:36.837Z,66.52
2022-12-03T19:21:13.551Z,65.53
2022-12-03T19:24:09.903Z,63.93
2022-12-03T19:26:37.597Z,62.77
2022-12-03T19:29:10.755Z,61.96
2022-12-03T19:31:42.756Z,61.09
2022-12-03T19:34:14.702Z,60.45
2022-12-03T19:36:47.647Z,60.40
2022-12-03T19:39:19.811Z,59.90
2022-12-03T19:41:51.705Z,57.88
2022-12-03T19:44:23.626Z,56.77
2022-12-03T19:46:56.917Z,57.82
2022-12-03T19:49:29.051Z,60.01
2022-12-03T19:52:01.004Z,64.42
2022-12-03T19:54:33.424Z,67.91
2022-12-03T19:57:05.489Z,66.42
2022-12-03T19:59:37.794Z,64.64
2022-12-03T20:02:10.102Z,63.37
2022-12-03T20:04:42.203Z,62.42
2022-12-03T20:07:13.986Z,61.72
2022-12-03T20:09:46.060Z,61.01
2022-12-03T20:12:18.195Z,60.45
2022-12-03T20:14:50.167Z,60.43
2022-12-03T20:17:22.203Z,60.17
2022-12-03T20:19:54.171Z,59.73
2022-12-03T20:22:26.585Z,59.88
2022-12-03T20:24:58.825Z,59.91
2022-12-03T20:27:30.781Z,59.74
2022-12-03T20:30:02.647Z,58.00
2022-12-03T20:32:38.228Z,57.76
2022-12-03T20:35:12.921Z,59.05
2022-12-03T20:37:44.866Z,61.25
2022-12-03T20:40:16.966Z,65.56
2022-12-03T20:42:50.515Z,68.66
2022-12-03T20:45:22.448Z,67.26
2022-12-03T20:47:54.317Z,65.63
2022-12-03T20:50:26.397Z,64.48
2022-12-03T20:53:23.186Z,63.38
2022-12-03T20:55:57.997Z,62.58
2022-12-03T20:58:30.730Z,62.12
2022-12-03T21:01:15.979Z,61.69
2022-12-03T21:03:49.249Z,61.32
2022-12-03T21:06:22.175Z,60.96
2022-12-03T21:08:55.504Z,60.86
2022-12-03T21:11:31.639Z,60.78
2022-12-03T21:14:04.559Z,60.41
2022-12-03T21:17:07.137Z,60.26
2022-12-03T21:19:31.422Z,60.28
2022-12-03T21:22:03.492Z,60.29
2022-12-03T21:24:35.730Z,59.96
2022-12-03T21:27:07.734Z,59.89
2022-12-03T21:29:39.881Z,59.60
2022-12-03T21:32:11.768Z,57.83
2022-12-03T21:34:43.794Z,57.16
2022-12-03T21:37:15.848Z,59.11
2022-12-03T21:39:47.969Z,63.28
2022-12-03T21:42:36.013Z,66.79
2022-12-03T21:45:10.151Z,65.90
2022-12-03T21:47:42.264Z,64.44
2022-12-03T21:50:14.596Z,63.24
2022-12-03T21:52:46.761Z,62.41
2022-12-03T21:55:18.762Z,61.68
2022-12-03T21:57:50.818Z,61.02
2022-12-03T22:00:23.846Z,60.54
2022-12-03T22:02:55.691Z,60.32
2022-12-03T22:05:27.596Z,59.88
2022-12-03T22:07:59.498Z,59.47
2022-12-03T22:10:35.251Z,57.35
2022-12-03T22:13:07.040Z,56.27
2022-12-03T22:15:40.763Z,57.94
2022-12-03T22:18:12.633Z,60.22
2022-12-03T22:20:45.909Z,65.18
2022-12-03T22:23:17.666Z,68.65
2022-12-03T22:25:57.917Z,67.64
2022-12-03T22:28:29.956Z,65.58
2022-12-03T22:31:05.946Z,64.11
2022-12-03T22:33:38.946Z,62.91
2022-12-03T22:36:20.090Z,62.01
2022-12-03T22:38:53.070Z,61.21
2022-12-03T22:41:24.807Z,60.61
2022-12-03T22:43:56.597Z,60.40
2022-12-03T22:46:28.434Z,60.12
2022-12-03T22:49:06.393Z,60.39
2022-12-03T22:51:38.691Z,59.98
2022-12-03T22:54:11.604Z,57.82
2022-12-03T22:56:43.582Z,56.80
2022-12-03T22:59:15.439Z,57.98
2022-12-03T23:01:47.487Z,60.67
2022-12-03T23:04:19.369Z,65.19
2022-12-03T23:06:51.196Z,68.31
2022-12-03T23:09:23.015Z,67.51
2022-12-03T23:11:55.140Z,66.14
2022-12-03T23:14:27.111Z,64.92
2022-12-03T23:16:58.893Z,63.72
2022-12-03T23:19:30.742Z,62.67
2022-12-03T23:22:02.483Z,61.87
2022-12-03T23:24:34.511Z,61.17
2022-12-03T23:27:06.379Z,61.07
2022-12-03T23:29:38.234Z,60.51
2022-12-03T23:32:09.988Z,60.02
2022-12-03T23:34:41.902Z,59.96
2022-12-03T23:37:13.949Z,60.14
2022-12-03T23:39:48.155Z,60.24
2022-12-03T23:42:19.924Z,60.17
2022-12-03T23:44:51.663Z,59.90
2022-12-03T23:47:23.396Z,59.93
2022-12-03T23:49:55.432Z,59.88
2022-12-03T23:52:27.304Z,59.91
2022-12-03T23:54:59.073Z,59.91
2022-12-03T23:57:31.095Z,60.14
